sensor_id;sensor_type;location;lat;lon;timestamp;temperature;humidity
7445;DHT22;3764;48.126;11.594;2023-03-03T00:00:48;2.60;99.90
7445;DHT22;3764;48.126;11.594;2023-03-03T00:03:17;2.60;99.90
7445;DHT22;3764;48.126;11.594;2023-03-03T00:05:45;2.70;99.90
7445;DHT22;3764;48.126;11.594;2023-03-03T00:08:12;2.70;99.90
7445;DHT22;3764;48.126;11.594;2023-03-03T00:10:40;2.80;99.90
7445;DHT22;3764;48.126;11.594;2023-03-03T00:13:14;2.80;99.90
7445;DHT22;3764;48.126;11.594;2023-03-03T00:15:41;2.90;99.90
7445;DHT22;3764;48.126;11.594;2023-03-03T00:20:38;3.00;99.90
7445;DHT22;3764;48.126;11.594;2023-03-03T00:23:19;3.00;99.90
7445;DHT22;3764;48.126;11.594;2023-03-03T00:25:52;3.00;99.90
7445;DHT22;3764;48.126;11.594;2023-03-03T00:28:24;3.00;99.90
7445;DHT22;3764;48.126;11.594;2023-03-03T00:30:52;3.00;99.90
7445;DHT22;3764;48.126;11.594;2023-03-03T00:33:29;2.90;99.90
7445;DHT22;3764;48.126;11.594;2023-03-03T00:36:23;2.70;99.90
7445;DHT22;3764;48.126;11.594;2023-03-03T00:38:53;2.70;99.90
7445;DHT22;3764;48.126;11.594;2023-03-03T00:41:25;2.70;99.90
7445;DHT22;3764;48.126;11.594;2023-03-03T00:43:52;2.70;99.90
7445;DHT22;3764;48.126;11.594;2023-03-03T00:46:21;2.80;99.90
7445;DHT22;3764;48.126;11.594;2023-03-03T00:48:50;2.80;99.90
7445;DHT22;3764;48.126;11.594;2023-03-03T00:51:26;2.80;99.90
7445;DHT22;3764;48.126;11.594;2023-03-03T00:53:54;2.80;99.90
7445;DHT22;3764;48.126;11.594;2023-03-03T00:56:22;2.80;99.90
7445;DHT22;3764;48.126;11.594;2023-03-03T00:58:49;2.80;99.90
7445;DHT22;3764;48.126;11.594;2023-03-03T01:01:17;2.80;99.90
7445;DHT22;3764;48.126;11.594;2023-03-03T01:03:45;2.80;99.90
7445;DHT22;3764;48.126;11.594;2023-03-03T01:06:12;2.80;99.90
7445;DHT22;3764;48.126;11.594;2023-03-03T01:08:40;2.90;99.90
7445;DHT22;3764;48.126;11.594;2023-03-03T01:11:10;2.90;99.90
7445;DHT22;3764;48.126;11.594;2023-03-03T01:13:45;2.90;99.90
7445;DHT22;3764;48.126;11.594;2023-03-03T01:16:13;2.80;99.90
7445;DHT22;3764;48.126;11.594;2023-03-03T01:18:41;2.60;99.90
7445;DHT22;3764;48.126;11.594;2023-03-03T01:21:09;2.50;99.90
7445;DHT22;3764;48.126;11.594;2023-03-03T01:23:36;2.40;99.90
7445;DHT22;3764;48.126;11.594;2023-03-03T01:26:05;2.40;99.90
7445;DHT22;3764;48.126;11.594;2023-03-03T01:28:33;2.50;99.90
7445;DHT22;3764;48.126;11.594;2023-03-03T01:31:03;2.50;99.90
7445;DHT22;3764;48.126;11.594;2023-03-03T01:33:30;2.40;99.90
7445;DHT22;3764;48.126;11.594;2023-03-03T01:35:58;2.40;99.90
7445;DHT22;3764;48.126;11.594;2023-03-03T01:38:25;2.30;99.90
7445;DHT22;3764;48.126;11.594;2023-03-03T01:40:53;2.40;99.90
7445;DHT22;3764;48.126;11.594;2023-03-03T01:43:21;2.40;99.90
7445;DHT22;3764;48.126;11.594;2023-03-03T01:48:57;2.50;99.90
7445;DHT22;3764;48.126;11.594;2023-03-03T01:51:29;2.60;99.90
7445;DHT22;3764;48.126;11.594;2023-03-03T01:53:59;2.60;99.90
7445;DHT22;3764;48.126;11.594;2023-03-03T01:56:27;2.60;99.90
7445;DHT22;3764;48.126;11.594;2023-03-03T01:58:59;2.60;99.90
7445;DHT22;3764;48.126;11.594;2023-03-03T02:01:28;2.60;99.90
7445;DHT22;3764;48.126;11.594;2023-03-03T02:03:58;2.70;99.90
7445;DHT22;3764;48.126;11.594;2023-03-03T02:06:28;2.70;99.90
7445;DHT22;3764;48.126;11.594;2023-03-03T02:08:59;2.70;99.90
7445;DHT22;3764;48.126;11.594;2023-03-03T02:11:29;2.70;99.90
7445;DHT22;3764;48.126;11.594;2023-03-03T02:13:57;2.70;99.90
7445;DHT22;3764;48.126;11.594;2023-03-03T02:16:25;2.70;99.90
7445;DHT22;3764;48.126;11.594;2023-03-03T02:18:52;2.70;99.90
7445;DHT22;3764;48.126;11.594;2023-03-03T02:21:22;2.70;99.90
7445;DHT22;3764;48.126;11.594;2023-03-03T02:23:56;2.70;99.90
7445;DHT22;3764;48.126;11.594;2023-03-03T02:26:29;2.70;99.90
7445;DHT22;3764;48.126;11.594;2023-03-03T02:28:57;2.70;99.90
7445;DHT22;3764;48.126;11.594;2023-03-03T02:31:26;2.70;99.90
7445;DHT22;3764;48.126;11.594;2023-03-03T02:33:55;2.70;99.90
7445;DHT22;3764;48.126;11.594;2023-03-03T02:36:23;2.70;99.90
7445;DHT22;3764;48.126;11.594;2023-03-03T02:38:55;2.70;99.90
7445;DHT22;3764;48.126;11.594;2023-03-03T02:41:32;2.70;99.90
7445;DHT22;3764;48.126;11.594;2023-03-03T02:44:03;2.80;99.90
7445;DHT22;3764;48.126;11.594;2023-03-03T02:46:34;2.80;99.90
7445;DHT22;3764;48.126;11.594;2023-03-03T02:49:02;2.80;99.90
7445;DHT22;3764;48.126;11.594;2023-03-03T02:51:30;2.80;99.90
7445;DHT22;3764;48.126;11.594;2023-03-03T02:53:57;2.80;99.90
7445;DHT22;3764;48.126;11.594;2023-03-03T02:56:24;2.70;99.90
7445;DHT22;3764;48.126;11.594;2023-03-03T02:58:53;2.70;99.90
7445;DHT22;3764;48.126;11.594;2023-03-03T03:01:21;2.60;99.90
7445;DHT22;3764;48.126;11.594;2023-03-03T03:03:48;2.60;99.90
7445;DHT22;3764;48.126;11.594;2023-03-03T03:06:15;2.50;99.90
7445;DHT22;3764;48.126;11.594;2023-03-03T03:08:42;2.50;99.90
7445;DHT22;3764;48.126;11.594;2023-03-03T03:11:09;2.50;99.90
7445;DHT22;3764;48.126;11.594;2023-03-03T03:13:36;2.50;99.90
7445;DHT22;3764;48.126;11.594;2023-03-03T03:16:05;2.50;99.90
7445;DHT22;3764;48.126;11.594;2023-03-03T03:18:33;2.50;99.90
7445;DHT22;3764;48.126;11.594;2023-03-03T03:21:05;2.60;99.90
7445;DHT22;3764;48.126;11.594;2023-03-03T03:23:34;2.60;99.90
7445;DHT22;3764;48.126;11.594;2023-03-03T03:26:01;2.70;99.90
7445;DHT22;3764;48.126;11.594;2023-03-03T03:28:29;2.70;99.90
7445;DHT22;3764;48.126;11.594;2023-03-03T03:30:56;2.80;99.90
7445;DHT22;3764;48.126;11.594;2023-03-03T03:33:25;2.80;99.90
7445;DHT22;3764;48.126;11.594;2023-03-03T03:35:53;2.80;99.90
7445;DHT22;3764;48.126;11.594;2023-03-03T03:38:21;2.80;99.90
7445;DHT22;3764;48.126;11.594;2023-03-03T03:40:48;2.80;99.90
7445;DHT22;3764;48.126;11.594;2023-03-03T03:43:15;2.90;99.90
7445;DHT22;3764;48.126;11.594;2023-03-03T03:45:42;2.90;99.90
7445;DHT22;3764;48.126;11.594;2023-03-03T03:48:10;2.90;99.90
7445;DHT22;3764;48.126;11.594;2023-03-03T03:50:39;2.90;99.90
7445;DHT22;3764;48.126;11.594;2023-03-03T03:53:06;2.80;99.90
7445;DHT22;3764;48.126;11.594;2023-03-03T03:55:33;2.80;99.90
7445;DHT22;3764;48.126;11.594;2023-03-03T03:58:00;2.80;99.90
7445;DHT22;3764;48.126;11.594;2023-03-03T04:00:28;2.90;99.90
7445;DHT22;3764;48.126;11.594;2023-03-03T04:02:55;2.80;99.90
7445;DHT22;3764;48.126;11.594;2023-03-03T04:05:22;2.80;99.90
7445;DHT22;3764;48.126;11.594;2023-03-03T04:07:50;2.90;99.90
7445;DHT22;3764;48.126;11.594;2023-03-03T04:10:17;2.90;99.90
7445;DHT22;3764;48.126;11.594;2023-03-03T04:12:45;2.90;99.90
7445;DHT22;3764;48.126;11.594;2023-03-03T04:15:13;2.90;99.90
7445;DHT22;3764;48.126;11.594;2023-03-03T04:17:40;3.00;99.90
7445;DHT22;3764;48.126;11.594;2023-03-03T04:20:10;3.00;99.90
7445;DHT22;3764;48.126;11.594;2023-03-03T04:22:38;3.00;99.90
7445;DHT22;3764;48.126;11.594;2023-03-03T04:25:08;3.00;99.90
7445;DHT22;3764;48.126;11.594;2023-03-03T04:27:36;3.00;99.90
7445;DHT22;3764;48.126;11.594;2023-03-03T04:30:05;3.10;99.90
7445;DHT22;3764;48.126;11.594;2023-03-03T04:32:32;3.10;99.90
7445;DHT22;3764;48.126;11.594;2023-03-03T04:35:00;3.10;99.90
7445;DHT22;3764;48.126;11.594;2023-03-03T04:37:27;3.10;99.90
7445;DHT22;3764;48.126;11.594;2023-03-03T04:39:54;3.10;99.90
7445;DHT22;3764;48.126;11.594;2023-03-03T04:42:22;3.10;99.90
7445;DHT22;3764;48.126;11.594;2023-03-03T04:44:49;3.20;99.90
7445;DHT22;3764;48.126;11.594;2023-03-03T04:47:16;3.20;99.90
7445;DHT22;3764;48.126;11.594;2023-03-03T04:49:43;3.20;99.90
7445;DHT22;3764;48.126;11.594;2023-03-03T04:52:10;3.20;99.90
7445;DHT22;3764;48.126;11.594;2023-03-03T04:54:38;3.10;99.90
7445;DHT22;3764;48.126;11.594;2023-03-03T04:57:05;3.10;99.90
7445;DHT22;3764;48.126;11.594;2023-03-03T04:59:34;3.10;99.90
7445;DHT22;3764;48.126;11.594;2023-03-03T05:02:01;3.10;99.90
7445;DHT22;3764;48.126;11.594;2023-03-03T05:04:29;3.10;99.90
7445;DHT22;3764;48.126;11.594;2023-03-03T05:06:56;3.10;99.90
7445;DHT22;3764;48.126;11.594;2023-03-03T05:09:23;3.20;99.90
7445;DHT22;3764;48.126;11.594;2023-03-03T05:11:50;3.20;99.90
7445;DHT22;3764;48.126;11.594;2023-03-03T05:14:18;3.20;99.90
7445;DHT22;3764;48.126;11.594;2023-03-03T05:16:46;3.20;99.90
7445;DHT22;3764;48.126;11.594;2023-03-03T05:19:14;3.20;99.90
7445;DHT22;3764;48.126;11.594;2023-03-03T05:21:41;3.20;99.90
7445;DHT22;3764;48.126;11.594;2023-03-03T05:24:08;3.20;99.90
7445;DHT22;3764;48.126;11.594;2023-03-03T05:26:35;3.20;99.90
7445;DHT22;3764;48.126;11.594;2023-03-03T05:29:03;3.20;99.90
7445;DHT22;3764;48.126;11.594;2023-03-03T05:31:30;3.20;99.90
7445;DHT22;3764;48.126;11.594;2023-03-03T05:33:58;3.20;99.90
7445;DHT22;3764;48.126;11.594;2023-03-03T05:36:26;3.20;99.90
7445;DHT22;3764;48.126;11.594;2023-03-03T05:38:53;3.20;99.90
7445;DHT22;3764;48.126;11.594;2023-03-03T05:41:20;3.20;99.90
7445;DHT22;3764;48.126;11.594;2023-03-03T05:43:47;3.20;99.90
7445;DHT22;3764;48.126;11.594;2023-03-03T05:46:14;3.20;99.90
7445;DHT22;3764;48.126;11.594;2023-03-03T05:48:41;3.20;99.90
7445;DHT22;3764;48.126;11.594;2023-03-03T05:51:10;3.30;99.90
7445;DHT22;3764;48.126;11.594;2023-03-03T05:53:37;3.30;99.90
7445;DHT22;3764;48.126;11.594;2023-03-03T05:56:04;3.30;99.90
7445;DHT22;3764;48.126;11.594;2023-03-03T05:58:32;3.30;99.90
7445;DHT22;3764;48.126;11.594;2023-03-03T06:00:59;3.30;99.90
7445;DHT22;3764;48.126;11.594;2023-03-03T06:03:26;3.30;99.90
7445;DHT22;3764;48.126;11.594;2023-03-03T06:05:53;3.30;99.90
7445;DHT22;3764;48.126;11.594;2023-03-03T06:08:21;3.30;99.90
7445;DHT22;3764;48.126;11.594;2023-03-03T06:10:48;3.30;99.90
7445;DHT22;3764;48.126;11.594;2023-03-03T06:13:16;3.30;99.90
7445;DHT22;3764;48.126;11.594;2023-03-03T06:15:43;3.20;99.90
7445;DHT22;3764;48.126;11.594;2023-03-03T06:18:10;3.20;99.90
7445;DHT22;3764;48.126;11.594;2023-03-03T06:20:37;3.30;99.90
7445;DHT22;3764;48.126;11.594;2023-03-03T06:23:04;3.20;99.90
7445;DHT22;3764;48.126;11.594;2023-03-03T06:25:33;3.30;99.90
7445;DHT22;3764;48.126;11.594;2023-03-03T06:28:00;3.30;99.90
7445;DHT22;3764;48.126;11.594;2023-03-03T06:30:27;3.30;99.90
7445;DHT22;3764;48.126;11.594;2023-03-03T06:32:55;3.30;99.90
7445;DHT22;3764;48.126;11.594;2023-03-03T06:35:22;3.30;99.90
7445;DHT22;3764;48.126;11.594;2023-03-03T06:37:50;3.30;99.90
7445;DHT22;3764;48.126;11.594;2023-03-03T06:40:17;3.20;99.90
7445;DHT22;3764;48.126;11.594;2023-03-03T06:42:45;3.30;99.90
7445;DHT22;3764;48.126;11.594;2023-03-03T06:45:12;3.30;99.90
7445;DHT22;3764;48.126;11.594;2023-03-03T06:47:40;3.30;99.90
7445;DHT22;3764;48.126;11.594;2023-03-03T06:50:09;3.30;99.90
7445;DHT22;3764;48.126;11.594;2023-03-03T06:52:36;3.30;99.90
7445;DHT22;3764;48.126;11.594;2023-03-03T06:58:58;3.30;99.90
7445;DHT22;3764;48.126;11.594;2023-03-03T07:01:32;3.30;99.90
7445;DHT22;3764;48.126;11.594;2023-03-03T07:04:00;3.20;99.90
7445;DHT22;3764;48.126;11.594;2023-03-03T07:06:31;3.30;99.90
7445;DHT22;3764;48.126;11.594;2023-03-03T07:08:58;3.30;99.90
7445;DHT22;3764;48.126;11.594;2023-03-03T07:11:25;3.30;99.90
7445;DHT22;3764;48.126;11.594;2023-03-03T07:13:54;3.30;99.90
7445;DHT22;3764;48.126;11.594;2023-03-03T07:16:25;3.30;99.90
7445;DHT22;3764;48.126;11.594;2023-03-03T07:18:54;3.30;99.90
7445;DHT22;3764;48.126;11.594;2023-03-03T07:21:27;3.30;99.90
7445;DHT22;3764;48.126;11.594;2023-03-03T07:23:56;3.40;99.90
7445;DHT22;3764;48.126;11.594;2023-03-03T07:26:26;3.40;99.90
7445;DHT22;3764;48.126;11.594;2023-03-03T07:28:58;3.40;99.90
7445;DHT22;3764;48.126;11.594;2023-03-03T07:31:33;3.40;99.90
7445;DHT22;3764;48.126;11.594;2023-03-03T07:34:09;3.40;99.90
7445;DHT22;3764;48.126;11.594;2023-03-03T07:36:40;3.40;99.90
7445;DHT22;3764;48.126;11.594;2023-03-03T07:39:30;3.40;99.90
7445;DHT22;3764;48.126;11.594;2023-03-03T07:42:17;3.40;99.90
7445;DHT22;3764;48.126;11.594;2023-03-03T07:44:46;3.40;99.90
7445;DHT22;3764;48.126;11.594;2023-03-03T07:47:23;3.40;99.90
7445;DHT22;3764;48.126;11.594;2023-03-03T07:49:51;3.40;99.90
7445;DHT22;3764;48.126;11.594;2023-03-03T07:52:30;3.40;99.90
7445;DHT22;3764;48.126;11.594;2023-03-03T07:55:21;3.40;99.90
7445;DHT22;3764;48.126;11.594;2023-03-03T07:57:51;3.40;99.90
7445;DHT22;3764;48.126;11.594;2023-03-03T08:03:34;3.40;99.90
7445;DHT22;3764;48.126;11.594;2023-03-03T08:06:10;3.50;99.90
7445;DHT22;3764;48.126;11.594;2023-03-03T08:08:51;3.50;99.90
7445;DHT22;3764;48.126;11.594;2023-03-03T08:11:18;3.50;99.90
7445;DHT22;3764;48.126;11.594;2023-03-03T08:13:46;3.50;99.90
7445;DHT22;3764;48.126;11.594;2023-03-03T08:16:29;3.50;99.90
7445;DHT22;3764;48.126;11.594;2023-03-03T08:19:04;3.60;99.90
7445;DHT22;3764;48.126;11.594;2023-03-03T08:21:32;3.60;99.90
7445;DHT22;3764;48.126;11.594;2023-03-03T08:24:01;3.50;99.90
7445;DHT22;3764;48.126;11.594;2023-03-03T08:26:28;3.50;99.90
7445;DHT22;3764;48.126;11.594;2023-03-03T08:28:55;3.50;99.90
7445;DHT22;3764;48.126;11.594;2023-03-03T08:31:22;3.50;99.90
7445;DHT22;3764;48.126;11.594;2023-03-03T08:33:49;3.40;99.90
7445;DHT22;3764;48.126;11.594;2023-03-03T08:36:18;3.30;99.90
7445;DHT22;3764;48.126;11.594;2023-03-03T08:38:45;3.30;99.90
7445;DHT22;3764;48.126;11.594;2023-03-03T08:41:12;3.40;99.90
7445;DHT22;3764;48.126;11.594;2023-03-03T08:43:39;3.40;99.90
7445;DHT22;3764;48.126;11.594;2023-03-03T08:46:08;3.40;99.90
7445;DHT22;3764;48.126;11.594;2023-03-03T08:48:36;3.50;99.90
7445;DHT22;3764;48.126;11.594;2023-03-03T08:51:03;3.60;99.90
7445;DHT22;3764;48.126;11.594;2023-03-03T08:53:32;3.60;99.90
7445;DHT22;3764;48.126;11.594;2023-03-03T08:56:01;3.70;99.90
7445;DHT22;3764;48.126;11.594;2023-03-03T08:58:28;3.80;99.90
7445;DHT22;3764;48.126;11.594;2023-03-03T09:00:55;3.80;99.90
7445;DHT22;3764;48.126;11.594;2023-03-03T09:03:24;3.90;99.90
7445;DHT22;3764;48.126;11.594;2023-03-03T09:05:51;3.90;99.90
7445;DHT22;3764;48.126;11.594;2023-03-03T09:08:18;4.00;99.90
7445;DHT22;3764;48.126;11.594;2023-03-03T09:10:47;4.00;99.90
7445;DHT22;3764;48.126;11.594;2023-03-03T09:13:16;4.00;99.90
7445;DHT22;3764;48.126;11.594;2023-03-03T09:15:44;4.00;99.90
7445;DHT22;3764;48.126;11.594;2023-03-03T09:18:17;4.00;99.90
7445;DHT22;3764;48.126;11.594;2023-03-03T09:20:45;3.90;99.90
7445;DHT22;3764;48.126;11.594;2023-03-03T09:23:33;4.00;99.90
7445;DHT22;3764;48.126;11.594;2023-03-03T09:26:29;4.00;99.90
7445;DHT22;3764;48.126;11.594;2023-03-03T09:29:15;4.00;99.90
7445;DHT22;3764;48.126;11.594;2023-03-03T09:31:44;4.00;99.90
7445;DHT22;3764;48.126;11.594;2023-03-03T09:34:19;4.00;99.90
7445;DHT22;3764;48.126;11.594;2023-03-03T09:36:47;4.00;99.90
7445;DHT22;3764;48.126;11.594;2023-03-03T09:39:17;4.10;99.90
7445;DHT22;3764;48.126;11.594;2023-03-03T09:42:11;4.20;99.90
7445;DHT22;3764;48.126;11.594;2023-03-03T09:48:18;4.30;99.90
7445;DHT22;3764;48.126;11.594;2023-03-03T09:50:58;4.40;99.90
7445;DHT22;3764;48.126;11.594;2023-03-03T09:53:40;4.50;99.90
7445;DHT22;3764;48.126;11.594;2023-03-03T09:56:14;4.50;99.90
7445;DHT22;3764;48.126;11.594;2023-03-03T09:59:02;4.60;99.90
7445;DHT22;3764;48.126;11.594;2023-03-03T10:01:39;4.70;99.90
7445;DHT22;3764;48.126;11.594;2023-03-03T10:07:25;4.70;99.90
7445;DHT22;3764;48.126;11.594;2023-03-03T10:10:10;4.70;99.90
7445;DHT22;3764;48.126;11.594;2023-03-03T10:12:51;4.70;99.90
7445;DHT22;3764;48.126;11.594;2023-03-03T10:15:31;4.80;99.90
7445;DHT22;3764;48.126;11.594;2023-03-03T10:18:04;4.90;99.90
7445;DHT22;3764;48.126;11.594;2023-03-03T10:20:45;4.80;99.90
7445;DHT22;3764;48.126;11.594;2023-03-03T10:23:20;4.80;99.90
7445;DHT22;3764;48.126;11.594;2023-03-03T10:25:57;4.80;99.90
7445;DHT22;3764;48.126;11.594;2023-03-03T10:28:58;4.80;99.90
7445;DHT22;3764;48.126;11.594;2023-03-03T10:31:43;4.80;99.90
7445;DHT22;3764;48.126;11.594;2023-03-03T10:34:21;4.80;99.90
7445;DHT22;3764;48.126;11.594;2023-03-03T10:36:54;4.80;99.90
7445;DHT22;3764;48.126;11.594;2023-03-03T10:39:40;4.90;99.90
7445;DHT22;3764;48.126;11.594;2023-03-03T10:42:30;4.90;99.90
7445;DHT22;3764;48.126;11.594;2023-03-03T10:45:30;4.80;99.90
7445;DHT22;3764;48.126;11.594;2023-03-03T10:48:20;4.70;99.90
7445;DHT22;3764;48.126;11.594;2023-03-03T10:50:56;4.70;99.90
7445;DHT22;3764;48.126;11.594;2023-03-03T10:53:31;4.80;99.90
7445;DHT22;3764;48.126;11.594;2023-03-03T10:56:18;4.90;99.90
7445;DHT22;3764;48.126;11.594;2023-03-03T10:58:58;4.90;99.90
7445;DHT22;3764;48.126;11.594;2023-03-03T11:01:41;4.80;99.90
7445;DHT22;3764;48.126;11.594;2023-03-03T11:04:23;4.90;99.90
7445;DHT22;3764;48.126;11.594;2023-03-03T11:06:54;4.90;99.90
7445;DHT22;3764;48.126;11.594;2023-03-03T11:09:35;5.00;99.90
7445;DHT22;3764;48.126;11.594;2023-03-03T11:12:14;5.10;99.90
7445;DHT22;3764;48.126;11.594;2023-03-03T11:14:48;5.10;99.90
7445;DHT22;3764;48.126;11.594;2023-03-03T11:17:21;5.10;99.90
7445;DHT22;3764;48.126;11.594;2023-03-03T11:20:00;5.20;99.90
7445;DHT22;3764;48.126;11.594;2023-03-03T11:22:36;5.30;99.90
7445;DHT22;3764;48.126;11.594;2023-03-03T11:25:23;5.30;99.90
7445;DHT22;3764;48.126;11.594;2023-03-03T11:28:04;5.40;99.90
7445;DHT22;3764;48.126;11.594;2023-03-03T11:30:48;5.40;99.90
7445;DHT22;3764;48.126;11.594;2023-03-03T11:33:21;5.50;99.90
7445;DHT22;3764;48.126;11.594;2023-03-03T11:35:58;5.50;99.90
7445;DHT22;3764;48.126;11.594;2023-03-03T11:38:47;5.50;99.90
7445;DHT22;3764;48.126;11.594;2023-03-03T11:41:22;5.50;99.90
7445;DHT22;3764;48.126;11.594;2023-03-03T11:43:54;5.60;99.90
7445;DHT22;3764;48.126;11.594;2023-03-03T11:46:28;5.60;99.90
7445;DHT22;3764;48.126;11.594;2023-03-03T11:48:59;5.50;99.90
7445;DHT22;3764;48.126;11.594;2023-03-03T11:51:40;5.50;99.90
7445;DHT22;3764;48.126;11.594;2023-03-03T11:54:13;5.50;99.90
7445;DHT22;3764;48.126;11.594;2023-03-03T11:56:42;5.60;99.90
7445;DHT22;3764;48.126;11.594;2023-03-03T11:59:25;5.70;99.90
7445;DHT22;3764;48.126;11.594;2023-03-03T12:01:56;5.70;99.90
7445;DHT22;3764;48.126;11.594;2023-03-03T12:04:30;5.80;99.90
7445;DHT22;3764;48.126;11.594;2023-03-03T12:07:14;5.80;99.90
7445;DHT22;3764;48.126;11.594;2023-03-03T12:09:54;5.80;99.90
7445;DHT22;3764;48.126;11.594;2023-03-03T12:12:28;5.90;99.90
7445;DHT22;3764;48.126;11.594;2023-03-03T12:15:12;5.90;99.90
7445;DHT22;3764;48.126;11.594;2023-03-03T12:18:06;5.80;99.90
7445;DHT22;3764;48.126;11.594;2023-03-03T12:20:41;5.80;99.90
7445;DHT22;3764;48.126;11.594;2023-03-03T12:23:35;5.90;99.90
7445;DHT22;3764;48.126;11.594;2023-03-03T12:26:07;6.00;99.90
7445;DHT22;3764;48.126;11.594;2023-03-03T12:28:40;6.00;99.90
7445;DHT22;3764;48.126;11.594;2023-03-03T12:31:29;6.00;99.90
7445;DHT22;3764;48.126;11.594;2023-03-03T12:34:04;5.90;99.90
7445;DHT22;3764;48.126;11.594;2023-03-03T12:39:45;6.00;99.90
7445;DHT22;3764;48.126;11.594;2023-03-03T12:42:25;6.10;99.90
7445;DHT22;3764;48.126;11.594;2023-03-03T12:45:04;6.20;99.90
7445;DHT22;3764;48.126;11.594;2023-03-03T12:47:37;6.30;99.90
7445;DHT22;3764;48.126;11.594;2023-03-03T12:50:20;6.40;99.90
7445;DHT22;3764;48.126;11.594;2023-03-03T12:52:55;6.30;99.90
7445;DHT22;3764;48.126;11.594;2023-03-03T12:55:32;6.30;99.90
7445;DHT22;3764;48.126;11.594;2023-03-03T12:58:09;6.30;99.90
7445;DHT22;3764;48.126;11.594;2023-03-03T13:00:46;6.40;99.90
7445;DHT22;3764;48.126;11.594;2023-03-03T13:03:24;6.40;99.90
7445;DHT22;3764;48.126;11.594;2023-03-03T13:05:59;6.50;99.90
7445;DHT22;3764;48.126;11.594;2023-03-03T13:08:42;6.50;99.90
7445;DHT22;3764;48.126;11.594;2023-03-03T13:11:29;6.50;99.90
7445;DHT22;3764;48.126;11.594;2023-03-03T13:14:09;6.60;99.90
7445;DHT22;3764;48.126;11.594;2023-03-03T13:16:42;6.70;99.90
7445;DHT22;3764;48.126;11.594;2023-03-03T13:19:15;6.70;99.90
7445;DHT22;3764;48.126;11.594;2023-03-03T13:21:47;6.60;99.90
7445;DHT22;3764;48.126;11.594;2023-03-03T13:24:22;6.60;99.90
7445;DHT22;3764;48.126;11.594;2023-03-03T13:26:54;6.70;99.90
7445;DHT22;3764;48.126;11.594;2023-03-03T13:29:26;6.60;99.90
7445;DHT22;3764;48.126;11.594;2023-03-03T13:31:55;6.60;99.90
7445;DHT22;3764;48.126;11.594;2023-03-03T13:34:38;6.60;99.90
7445;DHT22;3764;48.126;11.594;2023-03-03T13:37:14;6.60;99.90
7445;DHT22;3764;48.126;11.594;2023-03-03T13:39:54;6.70;99.90
7445;DHT22;3764;48.126;11.594;2023-03-03T13:42:28;6.70;99.90
7445;DHT22;3764;48.126;11.594;2023-03-03T13:45:00;6.80;99.90
7445;DHT22;3764;48.126;11.594;2023-03-03T13:47:37;6.80;99.90
7445;DHT22;3764;48.126;11.594;2023-03-03T13:50:21;6.90;99.90
7445;DHT22;3764;48.126;11.594;2023-03-03T13:53:00;7.00;99.90
7445;DHT22;3764;48.126;11.594;2023-03-03T13:55:34;7.20;99.90
7445;DHT22;3764;48.126;11.594;2023-03-03T13:58:10;7.40;99.90
7445;DHT22;3764;48.126;11.594;2023-03-03T14:00:53;7.50;99.90
7445;DHT22;3764;48.126;11.594;2023-03-03T14:03:43;7.70;99.90
7445;DHT22;3764;48.126;11.594;2023-03-03T14:06:16;7.70;99.90
7445;DHT22;3764;48.126;11.594;2023-03-03T14:08:54;7.80;99.90
7445;DHT22;3764;48.126;11.594;2023-03-03T14:11:28;7.90;99.90
7445;DHT22;3764;48.126;11.594;2023-03-03T14:14:11;7.90;99.90
7445;DHT22;3764;48.126;11.594;2023-03-03T14:16:49;8.00;99.90
7445;DHT22;3764;48.126;11.594;2023-03-03T14:19:18;8.00;99.90
7445;DHT22;3764;48.126;11.594;2023-03-03T14:21:54;8.10;99.90
7445;DHT22;3764;48.126;11.594;2023-03-03T14:24:24;8.30;99.90
7445;DHT22;3764;48.126;11.594;2023-03-03T14:26:54;8.30;99.90
7445;DHT22;3764;48.126;11.594;2023-03-03T14:29:30;8.30;99.90
7445;DHT22;3764;48.126;11.594;2023-03-03T14:31:59;8.30;99.90
7445;DHT22;3764;48.126;11.594;2023-03-03T14:34:45;8.30;99.90
7445;DHT22;3764;48.126;11.594;2023-03-03T14:37:42;8.40;99.90
7445;DHT22;3764;48.126;11.594;2023-03-03T14:40:18;8.50;99.90
7445;DHT22;3764;48.126;11.594;2023-03-03T14:42:48;8.50;99.90
7445;DHT22;3764;48.126;11.594;2023-03-03T14:45:29;8.50;99.90
7445;DHT22;3764;48.126;11.594;2023-03-03T14:47:57;8.50;99.90
7445;DHT22;3764;48.126;11.594;2023-03-03T14:50:31;8.60;99.90
7445;DHT22;3764;48.126;11.594;2023-03-03T14:53:20;8.40;99.90
7445;DHT22;3764;48.126;11.594;2023-03-03T14:55:50;8.40;99.90
7445;DHT22;3764;48.126;11.594;2023-03-03T14:58:30;8.40;99.90
7445;DHT22;3764;48.126;11.594;2023-03-03T15:01:13;8.40;99.90
7445;DHT22;3764;48.126;11.594;2023-03-03T15:03:47;8.30;99.90
7445;DHT22;3764;48.126;11.594;2023-03-03T15:06:28;8.20;99.90
7445;DHT22;3764;48.126;11.594;2023-03-03T15:08:56;8.10;99.90
7445;DHT22;3764;48.126;11.594;2023-03-03T15:11:26;8.00;99.90
7445;DHT22;3764;48.126;11.594;2023-03-03T15:14:09;7.90;99.90
7445;DHT22;3764;48.126;11.594;2023-03-03T15:16:39;7.90;99.90
7445;DHT22;3764;48.126;11.594;2023-03-03T15:19:35;7.90;99.90
7445;DHT22;3764;48.126;11.594;2023-03-03T15:22:09;7.90;99.90
7445;DHT22;3764;48.126;11.594;2023-03-03T15:24:43;7.90;99.90
7445;DHT22;3764;48.126;11.594;2023-03-03T15:27:18;7.90;99.90
7445;DHT22;3764;48.126;11.594;2023-03-03T15:30:00;7.90;99.90
7445;DHT22;3764;48.126;11.594;2023-03-03T15:32:34;7.90;99.90
7445;DHT22;3764;48.126;11.594;2023-03-03T15:35:13;8.00;99.90
7445;DHT22;3764;48.126;11.594;2023-03-03T15:37:51;8.00;99.90
7445;DHT22;3764;48.126;11.594;2023-03-03T15:40:25;8.00;99.90
7445;DHT22;3764;48.126;11.594;2023-03-03T15:43:05;7.90;99.90
7445;DHT22;3764;48.126;11.594;2023-03-03T15:45:39;7.90;99.90
7445;DHT22;3764;48.126;11.594;2023-03-03T15:48:23;7.90;99.90
7445;DHT22;3764;48.126;11.594;2023-03-03T15:50:58;7.90;99.90
7445;DHT22;3764;48.126;11.594;2023-03-03T15:53:39;7.80;99.90
7445;DHT22;3764;48.126;11.594;2023-03-03T15:56:19;7.80;99.90
7445;DHT22;3764;48.126;11.594;2023-03-03T15:59:17;7.90;99.90
7445;DHT22;3764;48.126;11.594;2023-03-03T16:01:52;7.90;99.90
7445;DHT22;3764;48.126;11.594;2023-03-03T16:04:27;7.90;99.90
7445;DHT22;3764;48.126;11.594;2023-03-03T16:07:03;7.80;99.90
7445;DHT22;3764;48.126;11.594;2023-03-03T16:09:42;7.80;99.90
7445;DHT22;3764;48.126;11.594;2023-03-03T16:12:23;7.80;99.90
7445;DHT22;3764;48.126;11.594;2023-03-03T16:15:13;7.70;99.90
7445;DHT22;3764;48.126;11.594;2023-03-03T16:17:46;7.70;99.90
7445;DHT22;3764;48.126;11.594;2023-03-03T16:20:21;7.70;99.90
7445;DHT22;3764;48.126;11.594;2023-03-03T16:23:21;7.60;99.90
7445;DHT22;3764;48.126;11.594;2023-03-03T16:26:00;7.60;99.90
7445;DHT22;3764;48.126;11.594;2023-03-03T16:28:37;7.60;99.90
7445;DHT22;3764;48.126;11.594;2023-03-03T16:31:08;7.60;99.90
7445;DHT22;3764;48.126;11.594;2023-03-03T16:33:41;7.50;99.90
7445;DHT22;3764;48.126;11.594;2023-03-03T16:36:21;7.60;99.90
7445;DHT22;3764;48.126;11.594;2023-03-03T16:38:59;7.60;99.90
7445;DHT22;3764;48.126;11.594;2023-03-03T16:41:37;7.60;99.90
7445;DHT22;3764;48.126;11.594;2023-03-03T16:44:15;7.70;99.90
7445;DHT22;3764;48.126;11.594;2023-03-03T16:46:47;7.70;99.90
7445;DHT22;3764;48.126;11.594;2023-03-03T16:49:20;7.60;99.90
7445;DHT22;3764;48.126;11.594;2023-03-03T16:51:57;7.60;99.90
7445;DHT22;3764;48.126;11.594;2023-03-03T16:54:33;7.60;99.90
7445;DHT22;3764;48.126;11.594;2023-03-03T16:57:08;7.60;99.90
7445;DHT22;3764;48.126;11.594;2023-03-03T17:00:05;7.60;99.90
7445;DHT22;3764;48.126;11.594;2023-03-03T17:03:18;7.50;99.90